x

Fred Howard Park, Fl (fhpf1) Weather Station

4:54am - Wed 27th Jul 2016 All times are EDT. -4 hours from GMT.

  • Wind
    5mph, 7mph gusts
  • Air Temp 82°f
  • Sea Pressure 1018mb
  • Fred Howard Park, Fl
  • Fred Howard Park, Fl

More Historic Weather Station data

Upgrade to MSW Pro to gain access to the past 30 days of data for over 8000 Wavebouys and Weather Stations around the globe.

Join Pro

Comparision Forecast

View Surf forecast
   
Wed 07/27 4:54am 5 7 mph 1018mb 82f
4:48am 7 8 mph 1018mb 82f
3:54am 6 7 mph 1017.6mb 82f
3:48am 5 6 mph 1017.6mb 82f
2:54am 6 7 mph 1018.4mb 83f
2:48am 5 6 mph 1018.4mb 83f
1:54am 5 6 mph 1018.5mb 83f
1:48am 5 6 mph 1018.6mb 84f
12:54am 7 8 mph 1018.4mb 86f
12:48am 7 9 mph 1018.4mb 87f
Tue 07/26 11:54pm 5 6 mph 1018.6mb 86f
11:48pm 3 6 mph 1018.3mb 87f
10:54pm 3 5 mph 1018.1mb 87f
10:48pm 3
mph
1018.1mb 87f
9:54pm 9 10 mph 1017.7mb 87f
9:48pm 8 9 mph 1017.7mb 87f
8:54pm 7 8 mph 1017.1mb 87f
8:48pm 8 10 mph 1017.1mb 87f
6:54pm 9 10 mph 1015.9mb 89f
6:48pm 9 11 mph 1015.8mb 89f
5:54pm 8 10 mph 1016.4mb 89f
5:48pm 8 9 mph 1016.4mb 89f
4:54pm 10 13 mph 1016.5mb 88f
4:48pm 10 11 mph 1016.7mb 87f
3:54pm 9 11 mph 1017.1mb 87f
3:48pm 9 11 mph 1017.2mb 87f
2:54pm 9 10 mph 1017.9mb 87f
2:48pm 9 10 mph 1017.9mb 87f
1:54pm 7 8 mph 1018.3mb 88f
1:48pm 7 9 mph 1018.3mb 88f
12:54pm 8 9 mph 1018.7mb 87f
12:48pm 7 9 mph 1018.8mb 87f
11:54am 9 10 mph 1018.8mb 86f
11:48am 9 10 mph 1018.9mb 86f
10:54am 11 14 mph 1018.9mb 85f
10:48am 11 14 mph 1018.8mb 85f
9:54am 11 13 mph 1018.7mb 83f
9:48am 10 13 mph 1018.7mb 83f
8:54am 9 11 mph 1018.5mb 82f
8:48am 9 11 mph 1018.5mb 82f
7:54am 8 9 mph 1018.4mb 80f
7:48am 8 9 mph 1018.3mb 80f
6:54am 9 10 mph 1017.7mb 78f
6:48am 9 11 mph 1017.7mb 78f
5:54am 8 9 mph 1017.4mb 78f
5:48am 8 9 mph 1017.3mb 78f
4:54am 8 10 mph 1017mb 79f
4:48am 7 8 mph 1017.1mb 79f
3:54am 8 9 mph 1017.4mb 80f
3:48am 8 9 mph 1017.3mb 80f
2:54am 6 7 mph 1017.3mb 84f
2:48am 7 8 mph 1017.6mb 84f
12:54am 7 8 mph 1018mb 84f
12:48am 6 8 mph 1018.1mb 84f
Mon 07/25 11:54pm 7 8 mph 1018.4mb 84f
11:48pm 7 9 mph 1018.4mb 84f
10:54pm 10 13 mph 1018.2mb 84f
10:48pm 11 14 mph 1018.2mb 84f
9:54pm 13 15 mph 1017.3mb 85f
9:48pm 14 16 mph 1017.5mb 85f
8:54pm 15 17 mph 1017.1mb 86f
8:48pm 15 17 mph 1017.1mb 86f
7:54pm 13 15 mph 1016.9mb 86f
7:48pm 13 15 mph 1016.8mb 86f
6:54pm 10 11 mph 1016.6mb 85f
6:48pm 10 14 mph 1016.5mb 85f
5:54pm 7 8 mph 1016.4mb 83f
5:48pm 8 9 mph 1016.6mb 83f
3:54pm 11 16 mph 1016.6mb 85f
3:48pm 11 14 mph 1016.6mb 85f
2:54pm 16 18 mph 1017.8mb 81f
2:48pm 17 20 mph 1017.6mb 81f
1:54pm 11 13 mph 1017.8mb 85f
1:48pm 13 14 mph 1017.8mb 85f
12:54pm 14 16 mph 1018.1mb 84f
12:48pm 14 15 mph 1018.1mb 84f
11:54am 15 18 mph 1018.1mb 84f
11:48am 13 16 mph 1018mb 85f
10:54am 9 14 mph 1018.3mb 84f
10:48am 8 10 mph 1018.3mb 84f
9:54am 9 11 mph 1018.3mb 82f
9:48am 7 9 mph 1018.3mb 83f
7:54am 9 11 mph 1017.5mb 78f
7:48am 9 11 mph 1017mb 78f
6:54am 9 11 mph 1017.1mb 76f
6:48am 9 11 mph 1017mb 76f
5:54am 8 9 mph 1016.3mb 76f
5:48am 8 9 mph 1016.2mb 76f
4:54am 9 11 mph 1016.3mb 76f
4:48am 9 11 mph 1016.4mb 76f
3:54am 9 11 mph 1016.5mb 77f
3:48am 9 11 mph 1016.3mb 77f
2:54am 9 11 mph 1016.6mb 77f
2:48am 10 13 mph 1016.6mb 76f
1:54am 10 13 mph 1017.4mb 76f
1:48am 9 13 mph 1017.4mb 76f
12:54am 9 11 mph 1017.6mb 76f
12:48am 8 10 mph 1017.5mb 76f
Sun 07/24 11:54pm 7 8 mph 1017.6mb 77f
11:48pm 6 8 mph 1017.5mb 77f
10:54pm 8 9 mph 1017.5mb 78f
10:48pm 9 14 mph 1017.5mb 77f
9:54pm 8 10 mph 1017mb 77f
9:48pm 8 9 mph 1017mb 77f
8:54pm 5 6 mph 1016.6mb 77f
8:48pm 3 6 mph 1016.6mb 77f
7:54pm 15 18 mph 1016.6mb 77f
7:48pm 15 18 mph 1016.6mb 77f
6:54pm 9 13 mph 1017.3mb 76f
6:48pm 7 8 mph 1017.1mb 77f
5:54pm 16 18 mph 1017.3mb 76f
5:48pm 18 23 mph 1017.5mb 76f
4:54pm 13 16 mph 1016.8mb 84f
4:48pm 13 14 mph 1016.2mb 84f
3:54pm 13 15 mph 1015.6mb 84f
3:48pm 13 15 mph 1015.6mb 84f
2:54pm 11 13 mph 1016.5mb 84f
2:48pm 13 15 mph 1016.3mb 84f
1:54pm 10 13 mph 1017.2mb 84f
1:48pm 10 11 mph 1017.3mb 84f
12:54pm 8 10 mph 1017.6mb 84f
12:48pm 8 10 mph 1017.6mb 84f
11:54am 6 7 mph 1017.6mb 85f
11:48am 5 6 mph 1017.6mb 84f